Wetterdaten: Woche 03.10.22 - 09.10.22 (KW40)
Datum Zeit Temp. Aussen Temp. o. S. Temp +5cm Feuchte Auss Luftdruck Regen Sonnenschein Regendauer Solar Windben Empfang
03.10.2022 00:00 10,0 C 8,7 C 6,1 C 93 % 1025,3 hPa 0,0 l/m 0,00 h 0,00 h 0 W/m 0,2 km/h (0 Bft) 97,19 %
03.10.2022 01:00 9,5 C 8,2 C 5,7 C 94 % 1025,5 hPa 0,0 l/m 0,00 h 0,00 h 0 W/m 0,1 km/h (0 Bft) 96,51 %
03.10.2022 02:00 9,2 C 8,1 C 5,6 C 96 % 1025,9 hPa 0,0 l/m 0,00 h 0,00 h 0 W/m 0,6 km/h (0 Bft) 98,23 %
03.10.2022 03:00 9,0 C 8,1 C 5,6 C 96 % 1026,1 hPa 0,0 l/m 0,00 h 0,00 h 0 W/m 0,2 km/h (0 Bft) 96,80 %
03.10.2022 04:00 9,0 C 8,2 C 5,7 C 97 % 1026,4 hPa 0,0 l/m 0,00 h 0,00 h 0 W/m 2,7 km/h (1 Bft) 97,22 %
03.10.2022 05:00 8,8 C 7,9 C 5,7 C 97 % 1026,7 hPa 0,0 l/m 0,00 h 0,00 h 0 W/m 1,7 km/h (1 Bft) 96,30 %
03.10.2022 06:00 8,4 C 7,4 C 5,2 C 97 % 1026,9 hPa 0,0 l/m 0,00 h 0,00 h 0 W/m 0,1 km/h (0 Bft) 99,50 %
03.10.2022 07:00 8,4 C 7,7 C 5,4 C 98 % 1027,1 hPa 0,0 l/m 0,00 h 0,00 h 6 W/m 1,4 km/h (1 Bft) 96,42 %
03.10.2022 08:00 8,9 C 8,4 C 6,0 C 98 % 1027,5 hPa 0,0 l/m 0,00 h 0,00 h 26 W/m 1,4 km/h (1 Bft) 96,95 %
03.10.2022 09:00 9,9 C 10,1 C 7,4 C 98 % 1027,9 hPa 0,0 l/m 0,00 h 0,00 h 85 W/m 4,1 km/h (1 Bft) 97,51 %
03.10.2022 10:00 11,0 C 11,9 C 8,6 C 99 % 1028,3 hPa 0,0 l/m 0,10 h 0,00 h 123 W/m 4,5 km/h (1 Bft) 96,12 %
03.10.2022 11:00 12,9 C 19,9 C 11,7 C 97 % 1028,2 hPa 0,0 l/m 0,37 h 0,00 h 224 W/m 5,1 km/h (1 Bft) 98,51 %
03.10.2022 12:00 15,1 C 16,5 C 12,0 C 84 % 1027,9 hPa 0,0 l/m 0,10 h 0,00 h 195 W/m 5,5 km/h (1 Bft) 98,97 %
03.10.2022 13:00 16,1 C 16,5 C 11,9 C 77 % 1027,7 hPa 0,0 l/m 0,10 h 0,00 h 204 W/m 5,0 km/h (1 Bft) 96,29 %
03.10.2022 14:00 16,4 C 16,5 C 11,7 C 74 % 1027,6 hPa 0,0 l/m 0,07 h 0,00 h 200 W/m 5,4 km/h (1 Bft) 98,01 %
03.10.2022 15:00 16,8 C 16,9 C 11,8 C 73 % 1027,3 hPa 0,0 l/m 0,80 h 0,00 h 383 W/m 5,5 km/h (1 Bft) 96,65 %
03.10.2022 16:00 17,2 C 16,8 C 11,8 C 71 % 1026,9 hPa 0,0 l/m 0,60 h 0,00 h 220 W/m 4,1 km/h (1 Bft) 99,57 %
03.10.2022 17:00 16,7 C 15,5 C 10,9 C 75 % 1026,5 hPa 0,0 l/m 0,00 h 0,00 h 80 W/m 0,6 km/h (0 Bft) 96,36 %
03.10.2022 18:00 15,8 C 13,8 C 9,8 C 81 % 1026,0 hPa 0,0 l/m 0,00 h 0,00 h 29 W/m 0,0 km/h (0 Bft) 98,72 %
03.10.2022 19:00 14,3 C 11,9 C 8,2 C 85 % 1025,8 hPa 0,0 l/m 0,00 h 0,00 h 5 W/m 0,0 km/h (0 Bft) 96,60 %
03.10.2022 20:00 12,8 C 10,9 C 7,7 C 89 % 1025,6 hPa 0,0 l/m 0,00 h 0,00 h 0 W/m 0,0 km/h (0 Bft) 96,58 %
03.10.2022 21:00 12,0 C 10,6 C 7,3 C 90 % 1025,5 hPa 0,0 l/m 0,00 h 0,00 h 0 W/m 0,1 km/h (0 Bft) 97,29 %
03.10.2022 22:00 11,2 C 9,6 C 6,8 C 92 % 1025,4 hPa 0,0 l/m 0,00 h 0,00 h 0 W/m 0,0 km/h (0 Bft) 98,86 %
03.10.2022 23:00 10,6 C 9,4 C 6,7 C 94 % 1025,1 hPa 0,0 l/m 0,00 h 0,00 h 0 W/m 0,0 km/h (0 Bft) 96,13 %
04.10.2022 00:00 10,4 C 9,4 C 6,7 C 95 % 1025,0 hPa 0,0 l/m 0,00 h 0,00 h 0 W/m 0,9 km/h (0 Bft) 96,32 %
04.10.2022 01:00 10,5 C 10,0 C 7,2 C 96 % 1024,3 hPa 0,0 l/m 0,00 h 0,00 h 0 W/m 2,6 km/h (1 Bft) 98,22 %
04.10.2022 02:00 10,4 C 9,5 C 7,1 C 96 % 1024,1 hPa 0,0 l/m 0,00 h 0,00 h 0 W/m 2,8 km/h (1 Bft) 97,70 %
04.10.2022 03:00 10,2 C 9,4 C 6,7 C 96 % 1023,8 hPa 0,0 l/m 0,00 h 0,00 h 0 W/m 3,2 km/h (1 Bft) 97,36 %
04.10.2022 04:00 9,8 C 8,9 C 6,7 C 97 % 1023,2 hPa 0,0 l/m 0,00 h 0,00 h 0 W/m 4,2 km/h (1 Bft) 96,66 %
04.10.2022 05:00 9,5 C 8,6 C 6,3 C 97 % 1022,6 hPa 0,2 l/m 0,00 h 0,00 h 0 W/m 4,7 km/h (1 Bft) 99,50 %
04.10.2022 06:00 9,1 C 8,3 C 6,1 C 97 % 1022,4 hPa 0,0 l/m 0,00 h 0,00 h 0 W/m 3,8 km/h (1 Bft) 95,80 %
04.10.2022 07:00 8,8 C 7,8 C 5,6 C 97 % 1022,0 hPa 0,0 l/m 0,00 h 0,00 h 7 W/m 5,4 km/h (1 Bft) 98,60 %
04.10.2022 08:00 8,9 C 8,4 C 6,1 C 98 % 1022,1 hPa 0,0 l/m 0,00 h 0,00 h 41 W/m 7,4 km/h (2 Bft) 97,87 %
04.10.2022 09:00 9,4 C 9,5 C 6,8 C 98 % 1022,2 hPa 0,0 l/m 0,00 h 0,00 h 68 W/m 5,0 km/h (1 Bft) 97,42 %
04.10.2022 10:00 10,3 C 10,9 C 7,9 C 98 % 1022,1 hPa 0,0 l/m 0,07 h 0,00 h 89 W/m 7,1 km/h (2 Bft) 97,84 %
04.10.2022 11:00 12,9 C 19,0 C 14,8 C 93 % 1022,0 hPa 0,0 l/m 0,47 h 0,00 h 284 W/m 9,7 km/h (2 Bft) 95,55 %
04.10.2022 12:00 15,4 C 16,4 C 12,5 C 83 % 1021,7 hPa 0,0 l/m 0,10 h 0,00 h 84 W/m 9,5 km/h (2 Bft) 96,09 %
04.10.2022 13:00 16,6 C 16,8 C 12,7 C 77 % 1021,3 hPa 0,0 l/m 0,17 h 0,00 h 148 W/m 10,8 km/h (2 Bft) 99,36 %
04.10.2022 14:00 18,3 C 19,5 C 13,2 C 72 % 1020,8 hPa 0,0 l/m 0,93 h 0,00 h 540 W/m 10,8 km/h (2 Bft) 97,22 %
04.10.2022 15:00 19,1 C 18,5 C 13,6 C 66 % 1020,2 hPa 0,0 l/m 0,97 h 0,00 h 452 W/m 12,0 km/h (2 Bft) 97,67 %
04.10.2022 16:00 19,3 C 18,8 C 13,9 C 66 % 1019,6 hPa 0,0 l/m 1,00 h 0,00 h 379 W/m 11,3 km/h (2 Bft) 98,05 %
04.10.2022 17:00 19,2 C 18,5 C 13,4 C 67 % 1019,4 hPa 0,0 l/m 0,87 h 0,00 h 185 W/m 8,6 km/h (2 Bft) 97,50 %
04.10.2022 18:00 18,3 C 16,5 C 11,6 C 71 % 1019,3 hPa 0,0 l/m 0,00 h 0,00 h 30 W/m 3,2 km/h (1 Bft) 98,20 %
04.10.2022 19:00 16,5 C 13,8 C 9,3 C 77 % 1019,4 hPa 0,0 l/m 0,00 h 0,00 h 0 W/m 0,2 km/h (0 Bft) 96,87 %
04.10.2022 20:00 14,4 C 12,4 C 8,3 C 85 % 1019,9 hPa 0,0 l/m 0,00 h 0,00 h 0 W/m 0,1 km/h (0 Bft) 97,55 %
04.10.2022 21:00 14,2 C 13,4 C 8,7 C 86 % 1019,7 hPa 0,0 l/m 0,00 h 0,00 h 0 W/m 2,3 km/h (1 Bft) 99,07 %
04.10.2022 22:00 14,0 C 12,8 C 8,7 C 86 % 1019,7 hPa 0,0 l/m 0,00 h 0,00 h 0 W/m 7,6 km/h (2 Bft) 94,27 %
04.10.2022 23:00 13,5 C 12,4 C 8,9 C 87 % 1019,6 hPa 0,0 l/m 0,00 h 0,00 h 0 W/m 4,7 km/h (1 Bft) 98,58 %
05.10.2022 00:00 12,8 C 11,7 C 8,2 C 89 % 1019,5 hPa 0,0 l/m 0,00 h 0,00 h 0 W/m 3,1 km/h (1 Bft) 97,17 %
05.10.2022 01:00 12,1 C 11,0 C 7,7 C 91 % 1019,3 hPa 0,0 l/m 0,00 h 0,00 h 0 W/m 2,6 km/h (1 Bft) 98,71 %
05.10.2022 02:00 11,7 C 10,7 C 7,8 C 93 % 1018,9 hPa 0,0 l/m 0,00 h 0,00 h 0 W/m 4,2 km/h (1 Bft) 95,80 %
05.10.2022 03:00 11,5 C 10,6 C 7,7 C 94 % 1018,7 hPa 0,0 l/m 0,00 h 0,00 h 0 W/m 4,3 km/h (1 Bft) 98,46 %
05.10.2022 04:00 11,4 C 10,7 C 7,7 C 95 % 1018,3 hPa 0,0 l/m 0,00 h 0,00 h 0 W/m 6,1 km/h (2 Bft) 98,93 %
05.10.2022 05:00 11,8 C 11,2 C 8,2 C 95 % 1017,7 hPa 0,0 l/m 0,00 h 0,00 h 0 W/m 7,8 km/h (2 Bft) 95,23 %
05.10.2022 06:00 12,1 C 11,7 C 8,3 C 95 % 1017,4 hPa 0,0 l/m 0,00 h 0,00 h 0 W/m 7,8 km/h (2 Bft) 99,21 %
05.10.2022 07:00 12,4 C 11,9 C 8,9 C 94 % 1017,5 hPa 0,0 l/m 0,00 h 0,00 h 5 W/m 9,4 km/h (2 Bft) 96,58 %
05.10.2022 08:00 12,8 C 12,4 C 9,1 C 93 % 1017,5 hPa 0,0 l/m 0,00 h 0,00 h 22 W/m 9,7 km/h (2 Bft) 98,23 %
05.10.2022 09:00 13,3 C 12,8 C 9,5 C 91 % 1017,4 hPa 0,0 l/m 0,00 h 0,00 h 48 W/m 7,8 km/h (2 Bft) 97,68 %
05.10.2022 10:00 14,0 C 13,9 C 10,3 C 90 % 1017,4 hPa 0,0 l/m 0,00 h 0,00 h 85 W/m 8,4 km/h (2 Bft) 96,93 %
05.10.2022 11:00 15,5 C 15,6 C 11,7 C 87 % 1017,2 hPa 0,0 l/m 0,00 h 0,00 h 149 W/m 13,2 km/h (3 Bft) 97,78 %
05.10.2022 12:00 17,1 C 16,9 C 13,0 C 80 % 1017,0 hPa 0,0 l/m 0,07 h 0,00 h 186 W/m 27,5 km/h (4 Bft) 98,84 %
05.10.2022 13:00 18,8 C 19,1 C 14,3 C 76 % 1016,2 hPa 0,0 l/m 0,40 h 0,00 h 266 W/m 25,2 km/h (4 Bft) 95,33 %
05.10.2022 14:00 20,8 C 21,7 C 15,4 C 69 % 1015,1 hPa 0,0 l/m 1,00 h 0,00 h 584 W/m 22,5 km/h (4 Bft) 99,02 %
05.10.2022 15:00 21,8 C 21,0 C 16,3 C 66 % 1014,2 hPa 0,0 l/m 1,00 h 0,00 h 504 W/m 26,6 km/h (4 Bft) 97,94 %
05.10.2022 16:00 22,1 C 21,4 C 16,7 C 65 % 1014,2 hPa 0,0 l/m 0,93 h 0,00 h 358 W/m 29,9 km/h (5 Bft) 95,85 %
05.10.2022 17:00 21,2 C 20,2 C 16,0 C 70 % 1014,6 hPa 0,0 l/m 0,27 h 0,00 h 109 W/m 21,0 km/h (4 Bft) 99,36 %
05.10.2022 18:00 19,5 C 18,5 C 14,6 C 74 % 1015,8 hPa 0,0 l/m 0,00 h 0,00 h 24 W/m 18,2 km/h (3 Bft) 97,01 %
05.10.2022 19:00 18,0 C 17,1 C 13,3 C 77 % 1016,8 hPa 0,0 l/m 0,00 h 0,00 h 4 W/m 16,4 km/h (3 Bft) 97,80 %
05.10.2022 20:00 18,2 C 17,3 C 13,3 C 75 % 1017,1 hPa 0,0 l/m 0,00 h 0,00 h 0 W/m 23,1 km/h (4 Bft) 97,58 %
05.10.2022 21:00 18,4 C 17,7 C 13,6 C 75 % 1017,4 hPa 0,0 l/m 0,00 h 0,00 h 0 W/m 25,3 km/h (4 Bft) 98,71 %
05.10.2022 22:00 18,4 C 17,7 C 13,7 C 77 % 1017,9 hPa 0,0 l/m 0,00 h 0,00 h 0 W/m 26,5 km/h (4 Bft) 96,55 %
05.10.2022 23:00 18,0 C 16,9 C 12,7 C 83 % 1019,1 hPa 0,2 l/m 0,00 h 0,17 h 0 W/m 23,5 km/h (4 Bft) 98,17 %
06.10.2022 00:00 16,2 C 15,2 C 11,4 C 89 % 1020,4 hPa 0,6 l/m 0,00 h 0,10 h 0 W/m 16,7 km/h (3 Bft) 97,95 %
06.10.2022 01:00 13,3 C 12,2 C 8,4 C 91 % 1022,0 hPa 0,2 l/m 0,00 h 0,27 h 0 W/m 14,8 km/h (3 Bft) 98,00 %
06.10.2022 02:00 13,0 C 12,2 C 8,3 C 94 % 1022,9 hPa 0,0 l/m 0,00 h 0,00 h 0 W/m 6,1 km/h (2 Bft) 97,42 %
06.10.2022 03:00 12,8 C 12,1 C 8,4 C 95 % 1023,7 hPa 0,2 l/m 0,00 h 0,00 h 0 W/m 8,0 km/h (2 Bft) 95,80 %
06.10.2022 04:00 12,4 C 11,7 C 8,3 C 94 % 1024,4 hPa 0,0 l/m 0,00 h 0,00 h 0 W/m 5,6 km/h (1 Bft) 98,09 %
06.10.2022 05:00 12,0 C 11,3 C 8,1 C 93 % 1025,3 hPa 0,0 l/m 0,00 h 0,00 h 0 W/m 8,8 km/h (2 Bft) 97,16 %
06.10.2022 06:00 11,4 C 10,7 C 7,6 C 92 % 1026,3 hPa 0,0 l/m 0,00 h 0,00 h 0 W/m 9,4 km/h (2 Bft) 96,79 %
06.10.2022 07:00 10,8 C 10,0 C 7,0 C 91 % 1027,2 hPa 0,0 l/m 0,00 h 0,00 h 6 W/m 6,1 km/h (2 Bft) 98,49 %
06.10.2022 08:00 10,4 C 9,9 C 6,8 C 92 % 1028,1 hPa 0,0 l/m 0,00 h 0,00 h 19 W/m 5,2 km/h (1 Bft) 97,24 %
06.10.2022 09:00 11,3 C 11,0 C 7,7 C 90 % 1029,1 hPa 0,0 l/m 0,00 h 0,00 h 39 W/m 10,2 km/h (2 Bft) 98,08 %
06.10.2022 10:00 12,7 C 12,6 C 9,0 C 86 % 1029,8 hPa 0,0 l/m 0,07 h 0,00 h 79 W/m 12,0 km/h (2 Bft) 96,15 %
06.10.2022 11:00 14,5 C 20,1 C 15,8 C 81 % 1030,4 hPa 0,0 l/m 0,57 h 0,00 h 288 W/m 10,8 km/h (2 Bft) 99,43 %
06.10.2022 12:00 15,7 C 16,2 C 12,4 C 73 % 1030,7 hPa 0,0 l/m 0,10 h 0,00 h 95 W/m 14,4 km/h (3 Bft) 96,54 %
06.10.2022 13:00 16,3 C 16,2 C 12,2 C 69 % 1030,8 hPa 0,0 l/m 0,20 h 0,00 h 187 W/m 13,4 km/h (3 Bft) 98,93 %
06.10.2022 14:00 17,7 C 18,7 C 12,8 C 63 % 1030,5 hPa 0,0 l/m 1,00 h 0,00 h 589 W/m 14,4 km/h (3 Bft) 96,86 %
06.10.2022 15:00 18,0 C 17,4 C 12,8 C 61 % 1030,3 hPa 0,0 l/m 1,00 h 0,00 h 502 W/m 15,4 km/h (3 Bft) 98,29 %
06.10.2022 16:00 17,9 C 17,4 C 12,8 C 60 % 1030,2 hPa 0,0 l/m 1,00 h 0,00 h 366 W/m 12,9 km/h (3 Bft) 99,08 %
06.10.2022 17:00 17,2 C 16,4 C 12,1 C 61 % 1030,1 hPa 0,0 l/m 0,77 h 0,00 h 165 W/m 13,6 km/h (3 Bft) 94,87 %
06.10.2022 18:00 16,0 C 14,8 C 10,8 C 64 % 1030,0 hPa 0,0 l/m 0,00 h 0,00 h 18 W/m 6,0 km/h (2 Bft) 98,20 %
06.10.2022 19:00 14,5 C 13,0 C 8,7 C 70 % 1030,1 hPa 0,0 l/m 0,00 h 0,00 h 4 W/m 4,0 km/h (1 Bft) 96,07 %
06.10.2022 20:00 13,1 C 11,5 C 7,2 C 76 % 1030,1 hPa 0,0 l/m 0,00 h 0,00 h 0 W/m 1,7 km/h (1 Bft) 98,37 %
06.10.2022 21:00 11,9 C 10,3 C 6,3 C 81 % 1030,0 hPa 0,0 l/m 0,00 h 0,00 h 0 W/m 1,0 km/h (0 Bft) 97,45 %
06.10.2022 22:00 10,6 C 8,8 C 5,4 C 85 % 1030,1 hPa 0,0 l/m 0,00 h 0,00 h 0 W/m 0,6 km/h (0 Bft) 98,57 %
06.10.2022 23:00 10,0 C 9,3 C 5,8 C 88 % 1029,9 hPa 0,0 l/m 0,00 h 0,00 h 0 W/m 0,9 km/h (0 Bft) 96,65 %
07.10.2022 00:00 9,9 C 9,1 C 5,9 C 88 % 1029,4 hPa 0,0 l/m 0,00 h 0,00 h 0 W/m 2,2 km/h (1 Bft) 97,50 %
07.10.2022 01:00 9,5 C 8,5 C 5,6 C 88 % 1028,9 hPa 0,0 l/m 0,00 h 0,00 h 0 W/m 2,6 km/h (1 Bft) 95,95 %
07.10.2022 02:00 9,0 C 7,9 C 5,2 C 90 % 1028,5 hPa 0,0 l/m 0,00 h 0,00 h 0 W/m 3,2 km/h (1 Bft) 98,65 %
07.10.2022 03:00 8,2 C 7,1 C 4,3 C 91 % 1027,9 hPa 0,0 l/m 0,00 h 0,00 h 0 W/m 1,9 km/h (1 Bft) 93,50 %
07.10.2022 04:00 7,7 C 6,7 C 4,1 C 92 % 1027,3 hPa 0,0 l/m 0,00 h 0,00 h 0 W/m 2,3 km/h (1 Bft) 99,40 %
07.10.2022 05:00 7,3 C 6,5 C 3,9 C 94 % 1026,7 hPa 0,0 l/m 0,00 h 0,00 h 0 W/m 4,1 km/h (1 Bft) 97,31 %
07.10.2022 06:00 7,0 C 6,1 C 3,4 C 94 % 1026,3 hPa 0,0 l/m 0,00 h 0,00 h 0 W/m 6,4 km/h (2 Bft) 97,50 %
07.10.2022 07:00 6,7 C 6,1 C 3,3 C 95 % 1026,0 hPa 0,0 l/m 0,00 h 0,00 h 6 W/m 5,8 km/h (2 Bft) 96,65 %
07.10.2022 08:00 6,8 C 6,3 C 3,5 C 96 % 1025,8 hPa 0,0 l/m 0,00 h 0,00 h 20 W/m 6,2 km/h (2 Bft) 98,57 %
07.10.2022 09:00 7,7 C 8,0 C 4,8 C 96 % 1025,7 hPa 0,0 l/m 0,00 h 0,00 h 42 W/m 5,7 km/h (1 Bft) 98,14 %
07.10.2022 10:00 10,1 C 10,9 C 7,0 C 94 % 1025,5 hPa 0,0 l/m 0,00 h 0,00 h 68 W/m 8,5 km/h (2 Bft) 96,15 %
07.10.2022 11:00 13,8 C 20,0 C 15,0 C 84 % 1024,9 hPa 0,0 l/m 0,63 h 0,00 h 336 W/m 11,3 km/h (2 Bft) 99,07 %
07.10.2022 12:00 16,3 C 16,8 C 12,8 C 73 % 1024,2 hPa 0,0 l/m 0,07 h 0,00 h 105 W/m 13,9 km/h (3 Bft) 96,94 %
07.10.2022 13:00 17,3 C 17,4 C 12,9 C 68 % 1023,2 hPa 0,0 l/m 0,27 h 0,00 h 215 W/m 19,0 km/h (3 Bft) 97,08 %
07.10.2022 14:00 18,7 C 19,4 C 13,3 C 63 % 1022,1 hPa 0,0 l/m 1,00 h 0,00 h 576 W/m 17,5 km/h (3 Bft) 98,14 %
07.10.2022 15:00 18,8 C 18,1 C 13,3 C 61 % 1021,2 hPa 0,0 l/m 1,00 h 0,00 h 469 W/m 18,8 km/h (3 Bft) 97,60 %
07.10.2022 16:00 18,4 C 17,9 C 13,0 C 62 % 1020,4 hPa 0,0 l/m 1,00 h 0,00 h 322 W/m 14,9 km/h (3 Bft) 97,85 %
07.10.2022 17:00 17,9 C 17,0 C 12,4 C 65 % 1019,6 hPa 0,0 l/m 0,57 h 0,00 h 142 W/m 11,8 km/h (2 Bft) 96,15 %
07.10.2022 18:00 16,8 C 15,5 C 10,9 C 69 % 1019,2 hPa 0,0 l/m 0,00 h 0,00 h 27 W/m 6,1 km/h (2 Bft) 99,15 %
07.10.2022 19:00 14,9 C 12,3 C 8,0 C 76 % 1019,0 hPa 0,0 l/m 0,00 h 0,00 h 0 W/m 0,0 km/h (0 Bft) 96,44 %
07.10.2022 20:00 13,0 C 10,9 C 6,9 C 82 % 1019,0 hPa 0,0 l/m 0,00 h 0,00 h 0 W/m 0,0 km/h (0 Bft) 95,46 %
07.10.2022 21:00 11,9 C 10,5 C 6,5 C 85 % 1018,9 hPa 0,0 l/m 0,00 h 0,00 h 0 W/m 0,9 km/h (0 Bft) 97,43 %
07.10.2022 22:00 11,5 C 10,6 C 6,9 C 87 % 1018,9 hPa 0,0 l/m 0,00 h 0,00 h 0 W/m 4,0 km/h (1 Bft) 97,64 %
07.10.2022 23:00 11,1 C 10,1 C 6,7 C 87 % 1018,6 hPa 0,0 l/m 0,00 h 0,00 h 0 W/m 3,6 km/h (1 Bft) 95,62 %
08.10.2022 00:00 10,7 C 9,7 C 6,7 C 88 % 1018,3 hPa 0,0 l/m 0,00 h 0,00 h 0 W/m 3,4 km/h (1 Bft) 96,82 %
08.10.2022 01:00 10,3 C 9,4 C 6,1 C 89 % 1017,9 hPa 0,0 l/m 0,00 h 0,00 h 0 W/m 1,4 km/h (1 Bft) 98,86 %
08.10.2022 02:00 10,1 C 9,4 C 6,1 C 89 % 1017,6 hPa 0,0 l/m 0,00 h 0,00 h 0 W/m 8,0 km/h (2 Bft) 96,55 %
08.10.2022 03:00 10,1 C 9,4 C 6,1 C 90 % 1017,4 hPa 0,0 l/m 0,00 h 0,00 h 0 W/m 4,6 km/h (1 Bft) 96,37 %
08.10.2022 04:00 10,4 C 9,9 C 6,7 C 90 % 1017,2 hPa 0,0 l/m 0,00 h 0,00 h 0 W/m 10,1 km/h (2 Bft) 98,72 %
08.10.2022 05:00 11,5 C 10,7 C 7,2 C 92 % 1017,6 hPa 0,0 l/m 0,00 h 0,13 h 0 W/m 13,5 km/h (3 Bft) 96,16 %
08.10.2022 06:00 11,3 C 10,6 C 7,2 C 95 % 1017,8 hPa 0,2 l/m 0,00 h 0,13 h 0 W/m 8,1 km/h (2 Bft) 97,86 %
08.10.2022 07:00 11,3 C 10,6 C 7,2 C 97 % 1018,2 hPa 0,0 l/m 0,00 h 0,07 h 4 W/m 6,4 km/h (2 Bft) 98,15 %
08.10.2022 08:00 11,3 C 10,7 C 7,4 C 97 % 1019,1 hPa 0,0 l/m 0,00 h 0,00 h 18 W/m 10,8 km/h (2 Bft) 96,80 %
08.10.2022 09:00 11,9 C 11,6 C 8,2 C 97 % 1020,0 hPa 0,0 l/m 0,00 h 0,00 h 66 W/m 11,0 km/h (2 Bft) 96,97 %
08.10.2022 10:00 12,8 C 12,8 C 9,4 C 95 % 1020,8 hPa 0,0 l/m 0,00 h 0,00 h 97 W/m 12,3 km/h (3 Bft) 98,34 %
08.10.2022 11:00 14,1 C 16,3 C 12,1 C 88 % 1021,5 hPa 0,0 l/m 0,37 h 0,00 h 255 W/m 14,2 km/h (3 Bft) 96,53 %
08.10.2022 12:00 14,5 C 14,5 C 10,9 C 78 % 1022,0 hPa 0,0 l/m 0,10 h 0,00 h 149 W/m 17,9 km/h (3 Bft) 99,15 %
08.10.2022 13:00 15,3 C 15,2 C 11,1 C 70 % 1022,1 hPa 0,0 l/m 0,27 h 0,00 h 202 W/m 17,2 km/h (3 Bft) 97,26 %
08.10.2022 14:00 16,1 C 16,8 C 11,6 C 67 % 1022,3 hPa 0,0 l/m 0,73 h 0,00 h 475 W/m 16,0 km/h (3 Bft) 97,58 %
08.10.2022 15:00 16,3 C 15,8 C 11,6 C 66 % 1022,5 hPa 0,0 l/m 1,00 h 0,00 h 492 W/m 14,4 km/h (3 Bft) 99,50 %
08.10.2022 16:00 15,9 C 15,5 C 11,2 C 65 % 1022,7 hPa 0,0 l/m 0,73 h 0,00 h 269 W/m 12,4 km/h (3 Bft) 95,52 %
08.10.2022 17:00 15,4 C 14,6 C 10,6 C 66 % 1023,0 hPa 0,0 l/m 0,43 h 0,00 h 113 W/m 11,3 km/h (2 Bft) 98,50 %
08.10.2022 18:00 14,4 C 13,6 C 9,5 C 71 % 1023,5 hPa 0,0 l/m 0,00 h 0,00 h 16 W/m 5,6 km/h (1 Bft) 96,74 %
08.10.2022 19:00 13,2 C 11,6 C 7,2 C 75 % 1024,3 hPa 0,0 l/m 0,00 h 0,00 h 0 W/m 0,9 km/h (0 Bft) 96,01 %
08.10.2022 20:00 11,4 C 9,9 C 5,7 C 81 % 1025,1 hPa 0,0 l/m 0,00 h 0,00 h 0 W/m 0,0 km/h (0 Bft) 98,58 %
08.10.2022 21:00 10,1 C 8,6 C 4,8 C 85 % 1025,6 hPa 0,0 l/m 0,00 h 0,00 h 0 W/m 0,0 km/h (0 Bft) 97,65 %
08.10.2022 22:00 9,0 C 7,6 C 4,2 C 89 % 1026,0 hPa 0,0 l/m 0,00 h 0,00 h 0 W/m 0,0 km/h (0 Bft) 95,79 %
08.10.2022 23:00 8,1 C 6,9 C 3,7 C 91 % 1026,3 hPa 0,0 l/m 0,00 h 0,00 h 0 W/m 0,0 km/h (0 Bft) 96,52 %
09.10.2022 00:00 7,5 C 6,2 C 3,3 C 92 % 1026,3 hPa 0,0 l/m 0,00 h 0,00 h 0 W/m 0,0 km/h (0 Bft) 93,93 %
09.10.2022 01:00 6,8 C 5,7 C 2,8 C 93 % 1026,1 hPa 0,0 l/m 0,00 h 0,00 h 0 W/m 0,0 km/h (0 Bft) 98,12 %
09.10.2022 02:00 6,3 C 5,4 C 2,5 C 94 % 1026,1 hPa 0,0 l/m 0,00 h 0,00 h 0 W/m 0,4 km/h (0 Bft) 95,64 %
09.10.2022 03:00 5,9 C 4,8 C 2,2 C 94 % 1026,1 hPa 0,0 l/m 0,00 h 0,00 h 0 W/m 0,0 km/h (0 Bft) 96,37 %
09.10.2022 04:00 5,4 C 4,4 C 1,9 C 95 % 1025,8 hPa 0,0 l/m 0,00 h 0,00 h 0 W/m 0,1 km/h (0 Bft) 97,17 %
09.10.2022 05:00 5,5 C 4,9 C 2,4 C 95 % 1025,6 hPa 0,0 l/m 0,00 h 0,00 h 0 W/m 3,1 km/h (1 Bft) 98,57 %
09.10.2022 06:00 5,6 C 4,8 C 2,2 C 96 % 1025,4 hPa 0,0 l/m 0,00 h 0,00 h 0 W/m 3,4 km/h (1 Bft) 96,16 %
09.10.2022 07:00 5,4 C 4,8 C 2,2 C 96 % 1025,3 hPa 0,2 l/m 0,00 h 0,00 h 6 W/m 2,8 km/h (1 Bft) 97,15 %
09.10.2022 08:00 5,6 C 5,2 C 2,5 C 97 % 1025,3 hPa 0,0 l/m 0,00 h 0,00 h 19 W/m 4,8 km/h (1 Bft) 96,65 %
09.10.2022 09:00 6,5 C 6,6 C 3,6 C 97 % 1025,3 hPa 0,0 l/m 0,00 h 0,00 h 33 W/m 6,3 km/h (2 Bft) 99,43 %
09.10.2022 10:00 8,5 C 9,2 C 5,6 C 96 % 1025,2 hPa 0,0 l/m 0,00 h 0,00 h 43 W/m 7,8 km/h (2 Bft) 95,66 %
09.10.2022 11:00 11,7 C 17,4 C 9,9 C 87 % 1024,6 hPa 0,0 l/m 0,60 h 0,00 h 321 W/m 9,8 km/h (2 Bft) 98,29 %
09.10.2022 12:00 14,3 C 14,8 C 10,2 C 74 % 1023,8 hPa 0,0 l/m 0,03 h 0,00 h 73 W/m 13,8 km/h (3 Bft) 98,57 %
09.10.2022 13:00 15,3 C 15,1 C 10,6 C 70 % 1023,0 hPa 0,0 l/m 0,20 h 0,00 h 143 W/m 13,6 km/h (3 Bft) 96,94 %
09.10.2022 14:00 17,0 C 17,9 C 11,6 C 62 % 1021,9 hPa 0,0 l/m 1,00 h 0,00 h 572 W/m 14,5 km/h (3 Bft) 96,87 %
09.10.2022 15:00 17,6 C 16,7 C 12,1 C 59 % 1021,0 hPa 0,0 l/m 1,00 h 0,00 h 488 W/m 11,2 km/h (2 Bft) 98,86 %
09.10.2022 16:00 17,5 C 16,8 C 12,0 C 54 % 1020,0 hPa 0,0 l/m 1,00 h 0,00 h 340 W/m 15,1 km/h (3 Bft) 97,73 %
09.10.2022 17:00 16,8 C 15,7 C 11,2 C 58 % 1019,2 hPa 0,0 l/m 0,40 h 0,00 h 105 W/m 11,1 km/h (2 Bft) 96,65 %
09.10.2022 18:00 15,5 C 14,2 C 9,9 C 64 % 1018,5 hPa 0,0 l/m 0,00 h 0,00 h 16 W/m 5,4 km/h (1 Bft) 98,30 %
09.10.2022 19:00 13,9 C 12,4 C 7,9 C 70 % 1018,3 hPa 0,0 l/m 0,00 h 0,00 h 0 W/m 0,6 km/h (0 Bft) 97,51 %
09.10.2022 20:00 13,0 C 12,1 C 8,1 C 69 % 1018,1 hPa 0,0 l/m 0,00 h 0,00 h 0 W/m 4,3 km/h (1 Bft) 98,29 %
09.10.2022 21:00 12,2 C 11,0 C 7,0 C 71 % 1017,8 hPa 0,0 l/m 0,00 h 0,00 h 0 W/m 3,6 km/h (1 Bft) 95,94 %
09.10.2022 22:00 11,2 C 10,1 C 6,3 C 75 % 1017,5 hPa 0,0 l/m 0,00 h 0,00 h 0 W/m 3,0 km/h (1 Bft) 97,37 %
09.10.2022 23:00 10,4 C 9,4 C 6,1 C 79 % 1017,1 hPa 0,0 l/m 0,00 h 0,00 h 0 W/m 5,5 km/h (1 Bft) 96,45 %
Min-Datum _ 09.10.22 09.10.22 09.10.22 09.10.22 05.10.22 - - - - 03.10.22 09.10.22
_ Min-Zeit 04:52 03:34 04:28 16:26 15:30 - - - - 00:04 00:02
Minimum _ 5,2 C 4,4 C 1,7 C 52 % 1014,0 hPa - - - - 0,0 km/h (0 Bft) 15,38 %
Max-Datum _ 05.10.22 03.10.22 06.10.22 03.10.22 06.10.22 06.10.22 07.10.22 05.10.22 08.10.22 06.10.22 03.10.22
_ Max-Zeit 15:50 11:48 11:42 09:22 13:24 00:54 12:08 23:34 14:18 00:52 00:00
Maximum _ 22,2 C 25,6 C 19,4 C 99 % 1030,9 hPa 0,6 l/m 0,07 h 0,03 h 718 W/m 51,5 km/h
SO (7 Bft)
100,00 %
Durchschnitt _ 12,9 C 12,4 C 8,7 C 84 % 1023,0 hPa #1,8 l/m #27:28 h #52 min. 177 W/m 7,6 km/h (2 Bft) 97,40 %
© 2022 W. Hausmann